createdAt,value
2023-02-03T00:00:17.078Z,99697.84
2023-02-03T00:02:45.434Z,99704.06
2023-02-03T00:05:13.348Z,99700.53
2023-02-03T00:07:42.908Z,99713.72
2023-02-03T00:10:14.471Z,99714.19
2023-02-03T00:12:42.302Z,99713.84
2023-02-03T00:15:11.511Z,99709.16
2023-02-03T00:17:39.842Z,99709.22
2023-02-03T00:20:08.508Z,99697.94
2023-02-03T00:22:36.378Z,99706.84
2023-02-03T00:25:05.166Z,99690.97
2023-02-03T00:27:33.819Z,99702.66
2023-02-03T00:30:01.703Z,99691.00
2023-02-03T00:32:32.677Z,99683.06
2023-02-03T00:35:00.600Z,99695.25
2023-02-03T00:37:28.544Z,99695.13
2023-02-03T00:39:57.000Z,99694.47
2023-02-03T00:42:24.722Z,99693.91
2023-02-03T00:44:52.545Z,99677.91
2023-02-03T00:47:20.762Z,99685.94
2023-02-03T00:49:48.583Z,99678.88
2023-02-03T00:52:17.624Z,99685.38
2023-02-03T00:54:46.366Z,99678.09
2023-02-03T00:57:14.124Z,99683.81
2023-02-03T00:59:42.012Z,99689.22
2023-02-03T01:02:11.498Z,99681.41
2023-02-03T01:04:39.342Z,99676.28
2023-02-03T01:07:07.222Z,99679.66
2023-02-03T01:09:39.533Z,99680.53
2023-02-03T01:12:07.543Z,99675.25
2023-02-03T01:14:35.786Z,99668.47
2023-02-03T01:17:05.077Z,99664.53
2023-02-03T01:19:32.991Z,99669.47
2023-02-03T01:22:01.244Z,99675.63
2023-02-03T01:24:31.441Z,99671.81
2023-02-03T01:26:59.376Z,99672.44
2023-02-03T01:29:31.986Z,99670.91
2023-02-03T01:31:59.871Z,99669.56
2023-02-03T01:34:31.645Z,99646.78
2023-02-03T01:37:00.029Z,99670.78
2023-02-03T01:39:29.370Z,99667.38
2023-02-03T01:41:57.673Z,99672.75
2023-02-03T01:44:52.577Z,99673.81
2023-02-03T01:47:53.427Z,99680.56
2023-02-03T01:50:32.918Z,99670.50
2023-02-03T01:53:09.579Z,99671.19
2023-02-03T01:55:45.171Z,99668.41
2023-02-03T01:58:26.065Z,99667.31
2023-02-03T02:00:55.942Z,99657.09
2023-02-03T02:03:30.171Z,99658.34
2023-02-03T02:06:18.623Z,99653.75
2023-02-03T02:08:51.724Z,99658.00
2023-02-03T02:11:21.833Z,99658.00
2023-02-03T02:13:53.620Z,99655.19
2023-02-03T02:17:06.354Z,99653.75
2023-02-03T02:20:14.824Z,99651.00
2023-02-03T02:23:12.437Z,99643.66
2023-02-03T02:25:57.479Z,99649.78
2023-02-03T02:29:03.999Z,99651.13
2023-02-03T02:31:56.833Z,99650.66
2023-02-03T02:34:42.327Z,99654.94
2023-02-03T02:37:19.771Z,99652.44
2023-02-03T02:39:58.712Z,99646.97
2023-02-03T02:42:35.500Z,99640.72
2023-02-03T02:45:15.908Z,99641.72
2023-02-03T02:47:45.634Z,99612.22
2023-02-03T02:50:29.828Z,99638.44
2023-02-03T02:52:58.753Z,99642.66
2023-02-03T02:55:34.559Z,99641.13
2023-02-03T02:58:08.504Z,99636.00
2023-02-03T03:00:41.862Z,99633.22
2023-02-03T03:03:13.771Z,99627.00
2023-02-03T03:05:49.685Z,99633.22
2023-02-03T03:08:22.177Z,99617.72
2023-02-03T03:10:53.160Z,99631.09
2023-02-03T03:13:32.658Z,99632.19
2023-02-03T03:16:08.127Z,99630.13
2023-02-03T03:18:49.946Z,99634.13
2023-02-03T03:21:24.949Z,99630.97
2023-02-03T03:23:59.825Z,99638.09
2023-02-03T03:26:31.190Z,99636.34
2023-02-03T03:29:08.046Z,99638.38
2023-02-03T03:31:36.791Z,99638.00
2023-02-03T03:34:04.758Z,99635.13
2023-02-03T03:36:46.641Z,99635.25
2023-02-03T03:39:36.731Z,99639.56
2023-02-03T03:42:29.145Z,99633.66
2023-02-03T03:45:04.458Z,99633.31
2023-02-03T03:47:36.711Z,99630.91
2023-02-03T03:50:15.466Z,99627.72
2023-02-03T03:52:46.081Z,99637.22
2023-02-03T03:55:19.951Z,99629.13
2023-02-03T03:57:59.920Z,99627.94
2023-02-03T04:00:34.137Z,99634.69
2023-02-03T04:03:12.548Z,99645.00
2023-02-03T04:05:41.307Z,99638.50
2023-02-03T04:08:09.892Z,99632.97
2023-02-03T04:10:40.160Z,99642.03
2023-02-03T04:13:09.318Z,99642.13
2023-02-03T04:15:37.904Z,99648.66
2023-02-03T04:18:06.418Z,99642.19
2023-02-03T04:20:34.511Z,99638.84
2023-02-03T04:23:05.551Z,99647.41
2023-02-03T04:25:33.448Z,99655.31
2023-02-03T04:28:01.315Z,99649.91
2023-02-03T04:30:29.859Z,99648.81
2023-02-03T04:32:58.064Z,99656.13
2023-02-03T04:35:25.960Z,99655.00
2023-02-03T04:37:57.194Z,99650.25
2023-02-03T04:40:25.214Z,99649.87
2023-02-03T04:42:53.209Z,99655.03
2023-02-03T04:45:21.546Z,99630.50
2023-02-03T04:47:54.751Z,99622.53
2023-02-03T04:50:23.292Z,99655.09
2023-02-03T04:52:51.502Z,99645.22
2023-02-03T04:55:22.173Z,99653.75
2023-02-03T04:57:59.663Z,99643.94
2023-02-03T05:00:29.503Z,99650.53
2023-02-03T05:02:57.995Z,99653.53
2023-02-03T05:05:25.849Z,99647.31
2023-02-03T05:07:53.728Z,99648.38
2023-02-03T05:10:21.938Z,99647.78
2023-02-03T05:12:49.968Z,99635.47
2023-02-03T05:15:17.850Z,99648.25
2023-02-03T05:17:45.985Z,99621.31
2023-02-03T05:20:13.694Z,99651.16
2023-02-03T05:22:41.505Z,99647.16
2023-02-03T05:25:10.019Z,99651.50
2023-02-03T05:27:41.878Z,99637.81
2023-02-03T05:30:10.950Z,99652.63
2023-02-03T05:32:38.838Z,99644.31
2023-02-03T05:35:08.146Z,99642.34
2023-02-03T05:37:36.505Z,99651.47
2023-02-03T05:40:27.029Z,99654.97
2023-02-03T05:42:55.278Z,99632.97
2023-02-03T05:45:23.321Z,99650.81
2023-02-03T05:47:51.186Z,99647.00
2023-02-03T05:50:19.656Z,99656.69
2023-02-03T05:52:50.456Z,99655.63
2023-02-03T05:55:18.527Z,99653.88
2023-02-03T05:57:46.726Z,99649.59
2023-02-03T06:00:15.254Z,99638.00
2023-02-03T06:02:43.486Z,99664.06
2023-02-03T06:05:11.327Z,99637.88
2023-02-03T06:07:39.180Z,99655.53
2023-02-03T06:10:07.950Z,99637.13
2023-02-03T06:12:35.772Z,99652.13
2023-02-03T06:15:03.784Z,99661.47
2023-02-03T06:17:32.419Z,99655.25
2023-02-03T06:20:00.202Z,99662.12
2023-02-03T06:22:27.999Z,99663.44
2023-02-03T06:24:56.273Z,99664.63
2023-02-03T06:27:24.101Z,99665.00
2023-02-03T06:29:51.982Z,99666.97
2023-02-03T06:32:20.292Z,99669.88
2023-02-03T06:34:48.262Z,99671.72
2023-02-03T06:37:16.459Z,99627.59
2023-02-03T06:39:44.710Z,99665.84
2023-02-03T06:42:12.695Z,99665.72
2023-02-03T06:44:40.547Z,99662.03
2023-02-03T06:47:08.822Z,99660.88
2023-02-03T06:49:36.612Z,99667.19
2023-02-03T06:52:04.663Z,99660.22
2023-02-03T06:54:32.846Z,99664.47
2023-02-03T06:57:00.683Z,99667.06
2023-02-03T06:59:31.458Z,99665.37
2023-02-03T07:02:03.083Z,99660.22
2023-02-03T07:04:30.957Z,99661.66
2023-02-03T07:06:59.245Z,99661.47
2023-02-03T07:09:27.174Z,99658.47
2023-02-03T07:11:58.191Z,99654.09
2023-02-03T07:14:26.508Z,99661.34
2023-02-03T07:16:54.670Z,99663.69
2023-02-03T07:19:22.433Z,99653.34
2023-02-03T07:21:50.764Z,99665.25
2023-02-03T07:24:18.768Z,99654.28
2023-02-03T07:26:46.656Z,99657.16
2023-02-03T07:29:14.703Z,99659.44
2023-02-03T07:31:42.670Z,99651.63
2023-02-03T07:34:10.676Z,99656.19
2023-02-03T07:36:39.168Z,99659.13
2023-02-03T07:39:06.983Z,99654.28
2023-02-03T07:41:34.804Z,99647.28
2023-02-03T07:44:02.879Z,99662.41
2023-02-03T07:46:30.810Z,99666.22
2023-02-03T07:48:58.635Z,99661.84
2023-02-03T07:51:29.617Z,99658.03
2023-02-03T07:53:57.862Z,99652.34
2023-02-03T07:56:26.049Z,99650.94
2023-02-03T07:58:53.818Z,99653.44
2023-02-03T08:01:22.696Z,99652.94
2023-02-03T08:03:51.498Z,99652.50
2023-02-03T08:06:20.224Z,99648.16
2023-02-03T08:08:48.072Z,99655.16
2023-02-03T08:11:16.180Z,99653.72
2023-02-03T08:13:43.891Z,99641.03
2023-02-03T08:16:15.029Z,99652.22
2023-02-03T08:18:43.091Z,99644.06
2023-02-03T08:21:11.421Z,99654.38
2023-02-03T08:23:39.556Z,99652.34
2023-02-03T08:26:07.742Z,99660.19
2023-02-03T08:28:35.562Z,99646.06
2023-02-03T08:31:10.727Z,99645.78
2023-02-03T08:33:39.256Z,99650.13
2023-02-03T08:36:07.684Z,99642.31
2023-02-03T08:38:35.592Z,99652.94
2023-02-03T08:41:12.721Z,99647.06
2023-02-03T08:43:41.169Z,99639.16
2023-02-03T08:46:11.822Z,99635.25
2023-02-03T08:48:39.836Z,99637.88
2023-02-03T08:51:15.503Z,99642.56
2023-02-03T08:53:43.801Z,99642.56
2023-02-03T08:56:12.831Z,99641.28
2023-02-03T08:58:43.836Z,99641.28
2023-02-03T09:01:15.074Z,99644.13
2023-02-03T09:03:43.221Z,99637.34
2023-02-03T09:06:16.928Z,99643.34
2023-02-03T09:08:46.615Z,99643.78
2023-02-03T09:11:17.020Z,99643.97
2023-02-03T09:13:49.010Z,99640.44
2023-02-03T09:16:19.540Z,99646.34
2023-02-03T09:18:48.347Z,99633.22
2023-02-03T09:21:31.676Z,99639.16
2023-02-03T09:24:04.129Z,99639.94
2023-02-03T09:26:32.091Z,99639.75
2023-02-03T09:28:59.960Z,99640.03
2023-02-03T09:31:28.148Z,99638.53
2023-02-03T09:33:55.967Z,99637.56
2023-02-03T09:36:23.762Z,99627.41
2023-02-03T09:38:52.294Z,99636.78
2023-02-03T09:41:54.713Z,99620.03
2023-02-03T09:44:52.310Z,99641.75
2023-02-03T09:47:29.834Z,99642.91
2023-02-03T09:50:01.908Z,99632.53
2023-02-03T09:52:46.102Z,99620.78
2023-02-03T09:55:41.371Z,99640.53
2023-02-03T09:58:15.713Z,99642.69
2023-02-03T10:00:47.258Z,99634.38
2023-02-03T10:03:29.314Z,99631.00
2023-02-03T10:06:08.679Z,99637.03
2023-02-03T10:09:05.891Z,99641.25
2023-02-03T10:12:11.052Z,99635.56
2023-02-03T10:14:50.598Z,99640.06
2023-02-03T10:17:34.681Z,99641.25
2023-02-03T10:20:24.576Z,99635.34
2023-02-03T10:22:57.435Z,99631.22
2023-02-03T10:25:46.024Z,99627.44
2023-02-03T10:28:22.604Z,99635.03
2023-02-03T10:30:57.295Z,99639.09
2023-02-03T10:33:30.478Z,99636.06
2023-02-03T10:36:01.768Z,99638.34
2023-02-03T10:38:47.181Z,99629.25
2023-02-03T10:41:18.309Z,99622.50
2023-02-03T10:43:53.190Z,99632.34
2023-02-03T10:46:29.003Z,99624.44
2023-02-03T10:48:57.447Z,99624.06
2023-02-03T10:51:27.920Z,99617.59
2023-02-03T10:53:55.668Z,99619.44
2023-02-03T10:56:27.504Z,99602.88
2023-02-03T10:58:58.930Z,99605.75
2023-02-03T11:01:41.386Z,99593.69
2023-02-03T11:04:31.333Z,99601.31
2023-02-03T11:07:07.480Z,99602.53
2023-02-03T11:09:43.058Z,99600.19
2023-02-03T11:12:21.196Z,99602.69
2023-02-03T11:14:52.050Z,99600.00
2023-02-03T11:17:27.428Z,99612.66
2023-02-03T11:20:05.083Z,99606.34
2023-02-03T11:22:44.513Z,99611.38
2023-02-03T11:25:29.748Z,99602.63
2023-02-03T11:28:07.355Z,99613.47
2023-02-03T11:30:35.520Z,99611.94
2023-02-03T11:33:04.183Z,99613.00
2023-02-03T11:35:33.863Z,99616.44
2023-02-03T11:38:02.593Z,99607.06
2023-02-03T11:40:34.494Z,99605.16
2023-02-03T11:43:16.275Z,99604.16
2023-02-03T11:45:51.150Z,99605.16
2023-02-03T11:48:33.607Z,99610.53
2023-02-03T11:51:24.021Z,99610.25
2023-02-03T11:54:05.758Z,99604.22
2023-02-03T11:56:51.310Z,99601.34
2023-02-03T11:59:22.040Z,99602.00
2023-02-03T12:01:59.275Z,99600.41
2023-02-03T12:05:04.719Z,99596.75
2023-02-03T12:07:41.407Z,99598.75
2023-02-03T12:10:46.389Z,99600.13
2023-02-03T12:14:01.341Z,99597.97
2023-02-03T12:16:59.400Z,99602.94
2023-02-03T12:20:11.728Z,99597.97
2023-02-03T12:22:51.850Z,99593.09
2023-02-03T12:25:31.381Z,99597.22
2023-02-03T12:28:02.265Z,99592.91
2023-02-03T12:30:45.303Z,99599.97
2023-02-03T12:33:33.265Z,99593.50
2023-02-03T12:36:15.428Z,99595.66
2023-02-03T12:39:25.056Z,99595.66
2023-02-03T12:42:06.642Z,99597.50
2023-02-03T12:44:48.067Z,99593.91
2023-02-03T12:47:27.671Z,99588.25
2023-02-03T12:50:16.579Z,99596.22
2023-02-03T12:53:37.182Z,99606.50
2023-02-03T12:56:12.658Z,99604.34
2023-02-03T12:58:42.745Z,99593.09
2023-02-03T13:01:25.427Z,99601.00
2023-02-03T13:04:03.781Z,99591.19
2023-02-03T13:06:52.206Z,99594.41
2023-02-03T13:09:47.844Z,99591.06
2023-02-03T13:12:28.930Z,99591.34
2023-02-03T13:15:33.221Z,99588.81
2023-02-03T13:18:26.878Z,99589.87
2023-02-03T13:20:55.682Z,99590.66
2023-02-03T13:23:25.208Z,99580.16
2023-02-03T13:26:31.685Z,99589.97
2023-02-03T13:29:31.670Z,99594.28
2023-02-03T13:32:30.180Z,99592.75
2023-02-03T13:35:08.385Z,99593.44
2023-02-03T13:37:54.855Z,99597.34
2023-02-03T13:40:25.817Z,99590.22
2023-02-03T13:43:01.322Z,99591.22
2023-02-03T13:45:37.870Z,99592.13
2023-02-03T13:48:18.752Z,99593.81
2023-02-03T13:50:48.255Z,99570.72
2023-02-03T13:53:22.716Z,99596.69
2023-02-03T13:55:57.555Z,99595.41
2023-02-03T13:58:28.692Z,99594.28
2023-02-03T14:01:02.444Z,99596.53
2023-02-03T14:03:30.666Z,99593.16
2023-02-03T14:06:01.931Z,99593.03
2023-02-03T14:08:30.019Z,99582.81
2023-02-03T14:11:34.661Z,99591.34
2023-02-03T14:14:09.434Z,99590.16
2023-02-03T14:16:43.195Z,99595.00
2023-02-03T14:19:18.858Z,99596.69
2023-02-03T14:21:52.549Z,99596.81
2023-02-03T14:24:22.969Z,99594.78
2023-02-03T14:26:53.804Z,99581.50
2023-02-03T14:29:35.350Z,99589.37
2023-02-03T14:32:03.086Z,99594.38
2023-02-03T14:34:47.316Z,99595.22
2023-02-03T14:37:31.045Z,99592.13
2023-02-03T14:40:10.534Z,99587.72
2023-02-03T14:43:12.061Z,99594.50
2023-02-03T14:46:07.131Z,99593.78
2023-02-03T14:48:43.729Z,99600.88
2023-02-03T14:51:20.939Z,99597.03
2023-02-03T14:54:09.955Z,99596.19
2023-02-03T14:57:19.990Z,99594.84
2023-02-03T14:59:51.234Z,99597.91
2023-02-03T15:02:26.752Z,99594.84
2023-02-03T15:05:13.170Z,99599.34
2023-02-03T15:07:52.747Z,99595.72
2023-02-03T15:10:23.784Z,99602.16
2023-02-03T15:12:54.745Z,99601.72
2023-02-03T15:15:24.480Z,99596.59
2023-02-03T15:17:55.503Z,99604.25
2023-02-03T15:20:41.692Z,99599.25
2023-02-03T15:23:31.099Z,99611.41
2023-02-03T15:26:02.662Z,99612.19
2023-02-03T15:28:31.148Z,99611.84
2023-02-03T15:31:08.681Z,99613.22
2023-02-03T15:33:38.959Z,99618.94
2023-02-03T15:36:15.197Z,99612.06
2023-02-03T15:38:50.353Z,99603.09
2023-02-03T15:41:24.548Z,99615.16
2023-02-03T15:44:03.274Z,99616.69
2023-02-03T15:46:41.064Z,99616.31
2023-02-03T15:49:22.276Z,99618.50
2023-02-03T15:52:02.413Z,99615.97
2023-02-03T15:54:40.295Z,99625.78
2023-02-03T15:57:17.240Z,99627.31
2023-02-03T16:00:08.443Z,99626.13
2023-02-03T16:02:46.207Z,99633.38
2023-02-03T16:05:28.425Z,99630.22
2023-02-03T16:07:56.492Z,99630.56
2023-02-03T16:10:34.362Z,99628.28
2023-02-03T16:13:21.527Z,99636.81
2023-02-03T16:16:17.826Z,99629.03
2023-02-03T16:19:13.709Z,99633.78
2023-02-03T16:21:51.094Z,99632.06
2023-02-03T16:24:33.469Z,99640.25
2023-02-03T16:27:21.953Z,99644.38
2023-02-03T16:30:08.166Z,99637.25
2023-02-03T16:32:55.372Z,99647.66
2023-02-03T16:35:42.518Z,99645.69
2023-02-03T16:38:37.171Z,99644.56
2023-02-03T16:41:33.840Z,99642.75
2023-02-03T16:44:20.867Z,99644.81
2023-02-03T16:47:07.718Z,99631.78
2023-02-03T16:49:54.288Z,99642.56
2023-02-03T16:52:22.197Z,99638.03
2023-02-03T16:54:50.323Z,99633.13
2023-02-03T16:57:18.194Z,99640.66
2023-02-03T16:59:46.065Z,99648.28
2023-02-03T17:02:14.434Z,99625.25
2023-02-03T17:04:42.487Z,99651.72
2023-02-03T17:07:10.415Z,99638.28
2023-02-03T17:09:38.743Z,99645.28
2023-02-03T17:12:06.931Z,99631.56
2023-02-03T17:14:40.684Z,99641.84
2023-02-03T17:17:08.945Z,99652.91
2023-02-03T17:19:36.845Z,99618.91
2023-02-03T17:22:04.766Z,99621.34
2023-02-03T17:24:33.054Z,99644.13
2023-02-03T17:27:00.897Z,99645.50
2023-02-03T17:29:28.874Z,99658.66
2023-02-03T17:31:57.077Z,99635.13
2023-02-03T17:34:24.940Z,99638.34
2023-02-03T17:36:56.341Z,99625.28
2023-02-03T17:55:44.194Z,99652.72
2023-02-03T17:58:11.987Z,99661.19
2023-02-03T18:00:39.861Z,99659.25
2023-02-03T18:03:08.048Z,99663.13
2023-02-03T18:05:37.584Z,99662.03
2023-02-03T18:08:16.232Z,99641.59
2023-02-03T18:10:45.713Z,99640.75
2023-02-03T18:13:13.713Z,99659.03
2023-02-03T18:15:41.719Z,99660.53
2023-02-03T18:18:09.995Z,99663.56
2023-02-03T18:20:37.965Z,99660.47
2023-02-03T18:23:05.845Z,99670.31
2023-02-03T18:25:36.222Z,99668.44
2023-02-03T18:28:04.254Z,99665.63
2023-02-03T18:30:32.505Z,99664.47
2023-02-03T18:33:02.301Z,99671.19
2023-02-03T18:35:30.616Z,99660.56
2023-02-03T18:37:58.367Z,99663.66
2023-02-03T18:40:26.817Z,99681.25
2023-02-03T18:42:56.515Z,99660.84
2023-02-03T18:45:24.366Z,99678.44
2023-02-03T18:47:52.626Z,99677.72
2023-02-03T18:50:20.797Z,99673.94
2023-02-03T18:52:48.775Z,99674.28
2023-02-03T18:55:17.200Z,99676.91
2023-02-03T18:57:44.933Z,99674.91
2023-02-03T19:00:14.597Z,99680.87
2023-02-03T19:02:42.797Z,99677.16
2023-02-03T19:05:11.959Z,99677.53
2023-02-03T19:07:39.906Z,99676.41
2023-02-03T19:10:08.462Z,99675.94
2023-02-03T19:12:36.325Z,99655.94
2023-02-03T19:15:05.056Z,99678.25
2023-02-03T19:17:36.369Z,99683.50
2023-02-03T19:20:06.276Z,99682.81
2023-02-03T19:22:34.433Z,99673.00
2023-02-03T19:25:05.436Z,99684.91
2023-02-03T19:27:33.234Z,99676.41
2023-02-03T19:30:01.416Z,99677.78
2023-02-03T19:32:32.422Z,99677.97
2023-02-03T19:35:03.316Z,99680.22
2023-02-03T19:37:31.699Z,99682.13
2023-02-03T19:39:59.492Z,99679.97
2023-02-03T19:42:27.438Z,99682.56
2023-02-03T19:44:56.852Z,99687.84
2023-02-03T19:47:24.710Z,99679.59
2023-02-03T19:49:54.193Z,99681.44
2023-02-03T19:52:22.835Z,99684.28
2023-02-03T19:54:55.757Z,99681.25
2023-02-03T19:57:24.112Z,99685.25
2023-02-03T19:59:51.928Z,99689.00
2023-02-03T20:02:20.360Z,99689.19
2023-02-03T20:04:50.306Z,99693.63
2023-02-03T20:07:18.306Z,99693.94
2023-02-03T20:09:49.091Z,99699.00
2023-02-03T20:12:17.267Z,99695.84
2023-02-03T20:14:45.130Z,99698.66
2023-02-03T20:17:16.161Z,99685.06
2023-02-03T20:19:44.492Z,99683.22
2023-02-03T20:22:12.290Z,99697.19
2023-02-03T20:24:40.206Z,99700.28
2023-02-03T20:27:08.439Z,99705.50
2023-02-03T20:29:39.360Z,99709.97
2023-02-03T20:32:11.942Z,99707.41
2023-02-03T20:34:40.231Z,99710.66
2023-02-03T20:37:08.826Z,99712.72
2023-02-03T20:39:39.717Z,99715.50
2023-02-03T20:42:17.164Z,99700.81
2023-02-03T20:44:45.471Z,99722.62
2023-02-03T20:47:18.069Z,99720.19
2023-02-03T20:49:48.186Z,99709.00
2023-02-03T20:52:18.632Z,99718.13
2023-02-03T20:54:46.565Z,99713.06
2023-02-03T20:57:19.554Z,99707.88
2023-02-03T20:59:47.778Z,99722.81
2023-02-03T21:02:23.429Z,99731.94
2023-02-03T21:05:00.906Z,99731.16
2023-02-03T21:07:31.439Z,99722.94
2023-02-03T21:10:00.631Z,99721.78
2023-02-03T21:12:29.516Z,99728.22
2023-02-03T21:14:58.067Z,99733.97
2023-02-03T21:17:27.633Z,99735.44
2023-02-03T21:19:55.719Z,99736.38
2023-02-03T21:22:26.282Z,99738.31
2023-02-03T21:24:57.376Z,99717.84
2023-02-03T21:27:30.891Z,99740.94
2023-02-03T21:30:01.463Z,99737.94
2023-02-03T21:32:40.953Z,99740.13
2023-02-03T21:35:25.106Z,99736.13
2023-02-03T21:38:02.799Z,99743.84
2023-02-03T21:40:33.407Z,99750.19
2023-02-03T21:43:04.933Z,99746.12
2023-02-03T21:45:42.794Z,99744.22
2023-02-03T21:48:30.838Z,99747.69
2023-02-03T21:51:17.665Z,99746.28
2023-02-03T21:53:54.689Z,99741.59
2023-02-03T21:56:27.657Z,99752.41
2023-02-03T21:59:00.541Z,99750.13
2023-02-03T22:01:36.755Z,99753.62
2023-02-03T22:04:06.823Z,99753.00
2023-02-03T22:06:46.047Z,99755.19
2023-02-03T22:09:19.408Z,99754.94
2023-02-03T22:11:47.639Z,99757.91
2023-02-03T22:14:17.068Z,99758.31
2023-02-03T22:16:45.191Z,99756.97
2023-02-03T22:19:18.797Z,99751.97
2023-02-03T22:21:48.808Z,99766.78
2023-02-03T22:24:16.678Z,99766.09
2023-02-03T22:26:44.419Z,99739.22
2023-02-03T22:29:12.667Z,99766.78
2023-02-03T22:31:42.937Z,99772.19
2023-02-03T22:34:10.768Z,99770.25
2023-02-03T22:36:38.984Z,99777.34
2023-02-03T22:39:07.209Z,99772.97
2023-02-03T22:41:35.042Z,99774.75
2023-02-03T22:44:03.540Z,99758.69
2023-02-03T22:46:31.361Z,99774.63
2023-02-03T22:48:59.287Z,99772.19
2023-02-03T22:51:27.570Z,99783.44
2023-02-03T22:53:55.353Z,99768.91
2023-02-03T22:56:23.761Z,99774.13
2023-02-03T22:58:52.013Z,99775.69
2023-02-03T23:01:19.814Z,99785.19
2023-02-03T23:03:47.710Z,99774.81
2023-02-03T23:06:15.847Z,99780.03
2023-02-03T23:08:43.675Z,99777.41
2023-02-03T23:11:11.347Z,99778.97
2023-02-03T23:13:39.637Z,99786.75
2023-02-03T23:16:07.881Z,99787.84
2023-02-03T23:18:35.749Z,99783.53
2023-02-03T23:21:03.964Z,99787.13
2023-02-03T23:23:31.955Z,99788.69
2023-02-03T23:25:59.878Z,99794.69
2023-02-03T23:28:28.062Z,99789.47
2023-02-03T23:30:56.415Z,99788.69
2023-02-03T23:33:24.380Z,99791.75
2023-02-03T23:35:53.382Z,99799.88
2023-02-03T23:38:21.737Z,99793.97
2023-02-03T23:40:49.952Z,99797.34
2023-02-03T23:43:18.309Z,99798.34
2023-02-03T23:45:46.324Z,99796.59
2023-02-03T23:48:18.053Z,99787.28
2023-02-03T23:50:46.307Z,99804.28
2023-02-03T23:53:16.968Z,99801.72
2023-02-03T23:55:44.803Z,99804.44
2023-02-03T23:58:12.974Z,99804.28
